sensor_id;sensor_type;location;lat;lon;timestamp;temperature;humidity
46720;DHT22;32452;51.382;-0.002;2023-10-08T00:01:57;18.50;93.00
46720;DHT22;32452;51.382;-0.002;2023-10-08T00:04:43;18.50;92.80
46720;DHT22;32452;51.382;-0.002;2023-10-08T00:07:29;18.50;92.80
46720;DHT22;32452;51.382;-0.002;2023-10-08T00:10:15;18.50;92.80
46720;DHT22;32452;51.382;-0.002;2023-10-08T00:13:01;18.50;92.80
46720;DHT22;32452;51.382;-0.002;2023-10-08T00:15:46;18.40;92.70
46720;DHT22;32452;51.382;-0.002;2023-10-08T00:18:39;18.40;92.70
46720;DHT22;32452;51.382;-0.002;2023-10-08T00:21:34;18.30;92.70
46720;DHT22;32452;51.382;-0.002;2023-10-08T00:24:21;18.30;92.70
46720;DHT22;32452;51.382;-0.002;2023-10-08T00:27:12;18.30;92.70
46720;DHT22;32452;51.382;-0.002;2023-10-08T00:30:00;18.30;92.80
46720;DHT22;32452;51.382;-0.002;2023-10-08T00:32:45;18.30;92.80
46720;DHT22;32452;51.382;-0.002;2023-10-08T00:35:31;18.20;92.80
46720;DHT22;32452;51.382;-0.002;2023-10-08T00:38:18;18.20;92.80
46720;DHT22;32452;51.382;-0.002;2023-10-08T00:41:06;18.20;92.90
46720;DHT22;32452;51.382;-0.002;2023-10-08T00:43:52;18.20;92.90
46720;DHT22;32452;51.382;-0.002;2023-10-08T00:46:40;18.10;92.90
46720;DHT22;32452;51.382;-0.002;2023-10-08T00:49:33;18.10;93.00
46720;DHT22;32452;51.382;-0.002;2023-10-08T00:52:28;18.10;93.00
46720;DHT22;32452;51.382;-0.002;2023-10-08T00:55:25;18.10;93.10
46720;DHT22;32452;51.382;-0.002;2023-10-08T00:58:15;18.10;93.20
46720;DHT22;32452;51.382;-0.002;2023-10-08T01:01:10;18.10;93.20
46720;DHT22;32452;51.382;-0.002;2023-10-08T01:04:01;18.10;93.30
46720;DHT22;32452;51.382;-0.002;2023-10-08T01:06:56;18.10;93.40
46720;DHT22;32452;51.382;-0.002;2023-10-08T01:09:47;18.00;93.40
46720;DHT22;32452;51.382;-0.002;2023-10-08T01:12:35;18.00;93.40
46720;DHT22;32452;51.382;-0.002;2023-10-08T01:15:29;18.00;93.50
46720;DHT22;32452;51.382;-0.002;2023-10-08T01:18:15;18.00;93.60
46720;DHT22;32452;51.382;-0.002;2023-10-08T01:21:04;18.00;93.70
46720;DHT22;32452;51.382;-0.002;2023-10-08T01:23:54;17.90;93.70
46720;DHT22;32452;51.382;-0.002;2023-10-08T01:26:40;18.00;93.80
46720;DHT22;32452;51.382;-0.002;2023-10-08T01:29:26;17.90;93.90
46720;DHT22;32452;51.382;-0.002;2023-10-08T01:32:13;17.90;93.90
46720;DHT22;32452;51.382;-0.002;2023-10-08T01:35:01;17.90;94.00
46720;DHT22;32452;51.382;-0.002;2023-10-08T01:37:50;17.90;94.10
46720;DHT22;32452;51.382;-0.002;2023-10-08T01:40:36;17.90;94.10
46720;DHT22;32452;51.382;-0.002;2023-10-08T01:43:22;17.90;94.20
46720;DHT22;32452;51.382;-0.002;2023-10-08T01:46:08;17.90;94.20
46720;DHT22;32452;51.382;-0.002;2023-10-08T01:48:57;17.90;94.30
46720;DHT22;32452;51.382;-0.002;2023-10-08T01:51:50;17.90;94.30
46720;DHT22;32452;51.382;-0.002;2023-10-08T01:54:35;17.90;94.40
46720;DHT22;32452;51.382;-0.002;2023-10-08T01:57:22;17.90;94.40
46720;DHT22;32452;51.382;-0.002;2023-10-08T02:00:09;17.90;94.50
46720;DHT22;32452;51.382;-0.002;2023-10-08T02:03:04;17.90;94.50
46720;DHT22;32452;51.382;-0.002;2023-10-08T02:05:53;17.80;94.50
46720;DHT22;32452;51.382;-0.002;2023-10-08T02:08:39;17.80;94.50
46720;DHT22;32452;51.382;-0.002;2023-10-08T02:11:27;17.80;94.60
46720;DHT22;32452;51.382;-0.002;2023-10-08T02:14:22;17.80;94.70
46720;DHT22;32452;51.382;-0.002;2023-10-08T02:17:10;17.80;94.70
46720;DHT22;32452;51.382;-0.002;2023-10-08T02:20:02;17.80;94.80
46720;DHT22;32452;51.382;-0.002;2023-10-08T02:22:57;17.80;94.80
46720;DHT22;32452;51.382;-0.002;2023-10-08T02:26:10;17.80;94.80
46720;DHT22;32452;51.382;-0.002;2023-10-08T02:28:56;17.80;94.80
46720;DHT22;32452;51.382;-0.002;2023-10-08T02:31:45;17.80;94.80
46720;DHT22;32452;51.382;-0.002;2023-10-08T02:34:31;17.70;94.80
46720;DHT22;32452;51.382;-0.002;2023-10-08T02:37:17;17.70;94.90
46720;DHT22;32452;51.382;-0.002;2023-10-08T02:40:08;17.70;94.90
46720;DHT22;32452;51.382;-0.002;2023-10-08T02:43:04;17.60;95.00
46720;DHT22;32452;51.382;-0.002;2023-10-08T02:45:53;17.60;95.00
46720;DHT22;32452;51.382;-0.002;2023-10-08T02:48:41;17.50;95.10
46720;DHT22;32452;51.382;-0.002;2023-10-08T02:51:27;17.50;95.10
46720;DHT22;32452;51.382;-0.002;2023-10-08T02:54:13;17.50;95.20
46720;DHT22;32452;51.382;-0.002;2023-10-08T02:57:05;17.50;95.30
46720;DHT22;32452;51.382;-0.002;2023-10-08T03:00:02;17.40;95.30
46720;DHT22;32452;51.382;-0.002;2023-10-08T03:02:57;17.40;95.30
46720;DHT22;32452;51.382;-0.002;2023-10-08T03:05:48;17.30;95.40
46720;DHT22;32452;51.382;-0.002;2023-10-08T03:08:40;17.20;95.40
46720;DHT22;32452;51.382;-0.002;2023-10-08T03:11:30;17.20;95.40
46720;DHT22;32452;51.382;-0.002;2023-10-08T03:14:17;17.20;95.50
46720;DHT22;32452;51.382;-0.002;2023-10-08T03:17:08;17.10;95.60
46720;DHT22;32452;51.382;-0.002;2023-10-08T03:19:54;17.00;95.60
46720;DHT22;32452;51.382;-0.002;2023-10-08T03:22:47;17.00;95.70
46720;DHT22;32452;51.382;-0.002;2023-10-08T03:25:32;16.90;95.80
46720;DHT22;32452;51.382;-0.002;2023-10-08T03:28:29;16.90;95.90
46720;DHT22;32452;51.382;-0.002;2023-10-08T03:31:16;16.80;96.00
46720;DHT22;32452;51.382;-0.002;2023-10-08T03:34:03;16.70;96.10
46720;DHT22;32452;51.382;-0.002;2023-10-08T03:36:49;16.70;96.20
46720;DHT22;32452;51.382;-0.002;2023-10-08T03:39:36;16.70;96.30
46720;DHT22;32452;51.382;-0.002;2023-10-08T03:42:38;16.60;96.30
46720;DHT22;32452;51.382;-0.002;2023-10-08T03:45:26;16.60;96.40
46720;DHT22;32452;51.382;-0.002;2023-10-08T03:48:34;16.60;96.50
46720;DHT22;32452;51.382;-0.002;2023-10-08T03:51:22;16.60;96.60
46720;DHT22;32452;51.382;-0.002;2023-10-08T03:54:07;16.50;96.90
46720;DHT22;32452;51.382;-0.002;2023-10-08T03:57:02;16.50;96.60
46720;DHT22;32452;51.382;-0.002;2023-10-08T03:59:58;16.50;96.70
46720;DHT22;32452;51.382;-0.002;2023-10-08T04:02:45;16.40;96.70
46720;DHT22;32452;51.382;-0.002;2023-10-08T04:05:41;16.40;96.80
46720;DHT22;32452;51.382;-0.002;2023-10-08T04:08:37;16.30;96.80
46720;DHT22;32452;51.382;-0.002;2023-10-08T04:11:44;16.30;96.80
46720;DHT22;32452;51.382;-0.002;2023-10-08T04:14:33;16.30;96.80
46720;DHT22;32452;51.382;-0.002;2023-10-08T04:17:19;16.20;96.90
46720;DHT22;32452;51.382;-0.002;2023-10-08T04:20:08;16.10;96.90
46720;DHT22;32452;51.382;-0.002;2023-10-08T04:23:14;16.10;97.00
46720;DHT22;32452;51.382;-0.002;2023-10-08T04:26:03;16.10;97.00
46720;DHT22;32452;51.382;-0.002;2023-10-08T04:28:56;16.00;97.10
46720;DHT22;32452;51.382;-0.002;2023-10-08T04:31:48;16.00;97.10
46720;DHT22;32452;51.382;-0.002;2023-10-08T04:34:45;15.90;97.20
46720;DHT22;32452;51.382;-0.002;2023-10-08T04:37:33;15.90;97.30
46720;DHT22;32452;51.382;-0.002;2023-10-08T04:40:19;15.90;97.30
46720;DHT22;32452;51.382;-0.002;2023-10-08T04:43:09;15.80;97.40
46720;DHT22;32452;51.382;-0.002;2023-10-08T04:46:00;15.80;97.40
46720;DHT22;32452;51.382;-0.002;2023-10-08T04:49:05;15.80;97.50
46720;DHT22;32452;51.382;-0.002;2023-10-08T04:52:01;15.80;97.50
46720;DHT22;32452;51.382;-0.002;2023-10-08T04:55:00;15.80;97.60
46720;DHT22;32452;51.382;-0.002;2023-10-08T04:57:58;15.70;97.70
46720;DHT22;32452;51.382;-0.002;2023-10-08T05:00:46;15.70;97.80
46720;DHT22;32452;51.382;-0.002;2023-10-08T05:06:44;15.70;97.90
46720;DHT22;32452;51.382;-0.002;2023-10-08T05:09:30;15.70;97.90
46720;DHT22;32452;51.382;-0.002;2023-10-08T05:12:38;15.70;98.00
46720;DHT22;32452;51.382;-0.002;2023-10-08T05:15:32;15.70;98.00
46720;DHT22;32452;51.382;-0.002;2023-10-08T05:18:35;15.70;98.10
46720;DHT22;32452;51.382;-0.002;2023-10-08T05:21:53;15.80;98.10
46720;DHT22;32452;51.382;-0.002;2023-10-08T05:24:51;15.80;98.10
46720;DHT22;32452;51.382;-0.002;2023-10-08T05:27:53;15.80;98.20
46720;DHT22;32452;51.382;-0.002;2023-10-08T05:30:42;15.80;98.20
46720;DHT22;32452;51.382;-0.002;2023-10-08T05:33:40;15.80;98.30
46720;DHT22;32452;51.382;-0.002;2023-10-08T05:36:55;15.80;98.30
46720;DHT22;32452;51.382;-0.002;2023-10-08T05:39:46;15.80;98.30
46720;DHT22;32452;51.382;-0.002;2023-10-08T05:42:41;15.80;98.40
46720;DHT22;32452;51.382;-0.002;2023-10-08T05:45:32;15.80;98.40
46720;DHT22;32452;51.382;-0.002;2023-10-08T05:48:20;15.80;98.40
46720;DHT22;32452;51.382;-0.002;2023-10-08T05:51:13;15.80;98.40
46720;DHT22;32452;51.382;-0.002;2023-10-08T05:54:09;15.80;98.40
46720;DHT22;32452;51.382;-0.002;2023-10-08T05:57:09;15.70;98.40
46720;DHT22;32452;51.382;-0.002;2023-10-08T05:59:55;15.70;98.50
46720;DHT22;32452;51.382;-0.002;2023-10-08T06:02:42;15.80;98.50
46720;DHT22;32452;51.382;-0.002;2023-10-08T06:05:31;15.80;98.50
46720;DHT22;32452;51.382;-0.002;2023-10-08T06:08:30;15.80;98.50
46720;DHT22;32452;51.382;-0.002;2023-10-08T06:11:38;15.80;98.50
46720;DHT22;32452;51.382;-0.002;2023-10-08T06:14:31;15.80;98.50
46720;DHT22;32452;51.382;-0.002;2023-10-08T06:17:35;15.80;98.50
46720;DHT22;32452;51.382;-0.002;2023-10-08T06:20:43;15.80;98.50
46720;DHT22;32452;51.382;-0.002;2023-10-08T06:23:29;15.70;98.50
46720;DHT22;32452;51.382;-0.002;2023-10-08T06:26:21;15.80;98.50
46720;DHT22;32452;51.382;-0.002;2023-10-08T06:29:10;15.80;98.50
46720;DHT22;32452;51.382;-0.002;2023-10-08T06:32:12;15.80;98.50
46720;DHT22;32452;51.382;-0.002;2023-10-08T06:34:58;15.80;98.50
46720;DHT22;32452;51.382;-0.002;2023-10-08T06:37:47;15.90;98.60
46720;DHT22;32452;51.382;-0.002;2023-10-08T06:40:41;15.90;98.50
46720;DHT22;32452;51.382;-0.002;2023-10-08T06:43:29;16.00;98.40
46720;DHT22;32452;51.382;-0.002;2023-10-08T06:46:15;16.00;98.30
46720;DHT22;32452;51.382;-0.002;2023-10-08T06:49:07;16.10;98.30
46720;DHT22;32452;51.382;-0.002;2023-10-08T06:51:58;16.10;98.10
46720;DHT22;32452;51.382;-0.002;2023-10-08T06:54:43;16.20;98.00
46720;DHT22;32452;51.382;-0.002;2023-10-08T06:57:29;16.20;97.90
46720;DHT22;32452;51.382;-0.002;2023-10-08T07:00:15;16.20;97.80
46720;DHT22;32452;51.382;-0.002;2023-10-08T07:03:20;16.20;97.70
46720;DHT22;32452;51.382;-0.002;2023-10-08T07:06:06;16.30;97.70
46720;DHT22;32452;51.382;-0.002;2023-10-08T07:09:12;16.30;97.60
46720;DHT22;32452;51.382;-0.002;2023-10-08T07:12:13;16.30;97.60
46720;DHT22;32452;51.382;-0.002;2023-10-08T07:14:59;16.40;97.60
46720;DHT22;32452;51.382;-0.002;2023-10-08T07:17:46;16.40;97.50
46720;DHT22;32452;51.382;-0.002;2023-10-08T07:20:37;16.50;97.40
46720;DHT22;32452;51.382;-0.002;2023-10-08T07:23:24;16.50;97.20
46720;DHT22;32452;51.382;-0.002;2023-10-08T07:26:10;16.60;97.00
46720;DHT22;32452;51.382;-0.002;2023-10-08T07:29:05;16.80;96.90
46720;DHT22;32452;51.382;-0.002;2023-10-08T07:31:54;16.80;96.70
46720;DHT22;32452;51.382;-0.002;2023-10-08T07:34:41;16.90;96.60
46720;DHT22;32452;51.382;-0.002;2023-10-08T07:37:31;17.10;96.50
46720;DHT22;32452;51.382;-0.002;2023-10-08T07:40:23;17.30;96.30
46720;DHT22;32452;51.382;-0.002;2023-10-08T07:43:21;17.60;96.10
46720;DHT22;32452;51.382;-0.002;2023-10-08T07:46:14;17.80;95.90
46720;DHT22;32452;51.382;-0.002;2023-10-08T07:49:01;18.10;95.70
46720;DHT22;32452;51.382;-0.002;2023-10-08T07:51:50;18.30;95.40
46720;DHT22;32452;51.382;-0.002;2023-10-08T07:54:43;18.70;95.10
46720;DHT22;32452;51.382;-0.002;2023-10-08T07:57:29;19.10;94.90
46720;DHT22;32452;51.382;-0.002;2023-10-08T08:00:16;19.50;94.40
46720;DHT22;32452;51.382;-0.002;2023-10-08T08:03:09;20.10;93.80
46720;DHT22;32452;51.382;-0.002;2023-10-08T08:05:56;20.60;93.10
46720;DHT22;32452;51.382;-0.002;2023-10-08T08:08:44;21.10;92.40
46720;DHT22;32452;51.382;-0.002;2023-10-08T08:11:31;21.50;91.60
46720;DHT22;32452;51.382;-0.002;2023-10-08T08:14:22;21.90;90.90
46720;DHT22;32452;51.382;-0.002;2023-10-08T08:17:10;22.20;90.10
46720;DHT22;32452;51.382;-0.002;2023-10-08T08:19:59;22.20;88.90
46720;DHT22;32452;51.382;-0.002;2023-10-08T08:22:52;22.00;87.80
46720;DHT22;32452;51.382;-0.002;2023-10-08T08:25:41;22.00;88.00
46720;DHT22;32452;51.382;-0.002;2023-10-08T08:28:46;22.10;87.60
46720;DHT22;32452;51.382;-0.002;2023-10-08T08:31:32;22.10;87.40
46720;DHT22;32452;51.382;-0.002;2023-10-08T08:34:21;22.20;87.40
46720;DHT22;32452;51.382;-0.002;2023-10-08T08:37:06;22.50;87.50
46720;DHT22;32452;51.382;-0.002;2023-10-08T08:39:53;22.90;86.30
46720;DHT22;32452;51.382;-0.002;2023-10-08T08:42:41;23.40;84.80
46720;DHT22;32452;51.382;-0.002;2023-10-08T08:45:26;24.00;82.40
46720;DHT22;32452;51.382;-0.002;2023-10-08T08:48:13;24.50;80.00
46720;DHT22;32452;51.382;-0.002;2023-10-08T08:51:00;24.80;77.50
46720;DHT22;32452;51.382;-0.002;2023-10-08T08:53:46;25.30;74.90
46720;DHT22;32452;51.382;-0.002;2023-10-08T08:56:33;25.60;73.40
46720;DHT22;32452;51.382;-0.002;2023-10-08T08:59:20;26.00;71.30
46720;DHT22;32452;51.382;-0.002;2023-10-08T09:02:06;26.40;69.70
46720;DHT22;32452;51.382;-0.002;2023-10-08T09:04:53;26.70;67.40
46720;DHT22;32452;51.382;-0.002;2023-10-08T09:07:55;26.90;66.30
46720;DHT22;32452;51.382;-0.002;2023-10-08T09:10:41;27.10;64.60
46720;DHT22;32452;51.382;-0.002;2023-10-08T09:13:39;27.20;64.10
46720;DHT22;32452;51.382;-0.002;2023-10-08T09:16:25;27.20;62.60
46720;DHT22;32452;51.382;-0.002;2023-10-08T09:19:13;27.20;61.50
46720;DHT22;32452;51.382;-0.002;2023-10-08T09:22:08;27.20;61.10
46720;DHT22;32452;51.382;-0.002;2023-10-08T09:24:54;27.20;60.80
46720;DHT22;32452;51.382;-0.002;2023-10-08T09:27:42;27.20;59.90
46720;DHT22;32452;51.382;-0.002;2023-10-08T09:30:34;27.10;59.20
46720;DHT22;32452;51.382;-0.002;2023-10-08T09:33:28;27.10;58.60
46720;DHT22;32452;51.382;-0.002;2023-10-08T09:36:25;27.00;58.40
46720;DHT22;32452;51.382;-0.002;2023-10-08T09:39:18;27.10;58.30
46720;DHT22;32452;51.382;-0.002;2023-10-08T09:42:09;27.10;57.80
46720;DHT22;32452;51.382;-0.002;2023-10-08T09:44:57;27.20;57.20
46720;DHT22;32452;51.382;-0.002;2023-10-08T09:47:49;27.60;57.10
46720;DHT22;32452;51.382;-0.002;2023-10-08T09:50:38;27.90;56.70
46720;DHT22;32452;51.382;-0.002;2023-10-08T09:53:40;28.20;56.20
46720;DHT22;32452;51.382;-0.002;2023-10-08T09:56:29;28.40;55.40
46720;DHT22;32452;51.382;-0.002;2023-10-08T09:59:16;28.40;55.10
46720;DHT22;32452;51.382;-0.002;2023-10-08T10:02:05;28.40;54.60
46720;DHT22;32452;51.382;-0.002;2023-10-08T10:04:55;28.50;54.60
46720;DHT22;32452;51.382;-0.002;2023-10-08T10:07:41;28.70;54.40
46720;DHT22;32452;51.382;-0.002;2023-10-08T10:10:31;28.80;53.80
46720;DHT22;32452;51.382;-0.002;2023-10-08T10:13:18;28.90;53.30
46720;DHT22;32452;51.382;-0.002;2023-10-08T10:16:10;29.10;53.20
46720;DHT22;32452;51.382;-0.002;2023-10-08T10:19:02;29.40;53.20
46720;DHT22;32452;51.382;-0.002;2023-10-08T10:21:51;29.70;52.40
46720;DHT22;32452;51.382;-0.002;2023-10-08T10:24:38;30.00;51.30
46720;DHT22;32452;51.382;-0.002;2023-10-08T10:27:26;30.10;50.60
46720;DHT22;32452;51.382;-0.002;2023-10-08T10:30:12;30.10;49.90
46720;DHT22;32452;51.382;-0.002;2023-10-08T10:33:08;30.10;50.40
46720;DHT22;32452;51.382;-0.002;2023-10-08T10:35:54;30.30;49.80
46720;DHT22;32452;51.382;-0.002;2023-10-08T10:38:41;30.70;49.00
46720;DHT22;32452;51.382;-0.002;2023-10-08T10:41:27;31.00;48.30
46720;DHT22;32452;51.382;-0.002;2023-10-08T10:44:17;31.30;47.40
46720;DHT22;32452;51.382;-0.002;2023-10-08T10:47:03;31.70;46.80
46720;DHT22;32452;51.382;-0.002;2023-10-08T10:50:04;31.80;45.80
46720;DHT22;32452;51.382;-0.002;2023-10-08T10:53:18;31.70;44.90
46720;DHT22;32452;51.382;-0.002;2023-10-08T10:56:06;31.50;44.60
46720;DHT22;32452;51.382;-0.002;2023-10-08T10:59:06;31.50;44.20
46720;DHT22;32452;51.382;-0.002;2023-10-08T11:02:12;31.70;44.40
46720;DHT22;32452;51.382;-0.002;2023-10-08T11:05:16;31.80;44.00
46720;DHT22;32452;51.382;-0.002;2023-10-08T11:08:06;32.00;43.90
46720;DHT22;32452;51.382;-0.002;2023-10-08T11:10:53;32.20;42.80
46720;DHT22;32452;51.382;-0.002;2023-10-08T11:13:44;32.50;42.40
46720;DHT22;32452;51.382;-0.002;2023-10-08T11:16:46;32.70;42.00
46720;DHT22;32452;51.382;-0.002;2023-10-08T11:19:35;32.90;41.50
46720;DHT22;32452;51.382;-0.002;2023-10-08T11:22:41;32.90;41.30
46720;DHT22;32452;51.382;-0.002;2023-10-08T11:25:30;33.10;40.70
46720;DHT22;32452;51.382;-0.002;2023-10-08T11:28:21;33.00;41.70
46720;DHT22;32452;51.382;-0.002;2023-10-08T11:31:10;33.00;40.80
46720;DHT22;32452;51.382;-0.002;2023-10-08T11:34:01;33.20;39.70
46720;DHT22;32452;51.382;-0.002;2023-10-08T11:36:52;33.30;38.90
46720;DHT22;32452;51.382;-0.002;2023-10-08T11:39:41;33.40;38.40
46720;DHT22;32452;51.382;-0.002;2023-10-08T11:42:31;33.30;38.40
46720;DHT22;32452;51.382;-0.002;2023-10-08T11:45:21;33.20;38.10
46720;DHT22;32452;51.382;-0.002;2023-10-08T11:48:09;33.20;38.30
46720;DHT22;32452;51.382;-0.002;2023-10-08T11:50:58;33.10;38.30
46720;DHT22;32452;51.382;-0.002;2023-10-08T11:53:47;33.00;38.60
46720;DHT22;32452;51.382;-0.002;2023-10-08T11:56:33;33.00;38.50
46720;DHT22;32452;51.382;-0.002;2023-10-08T11:59:19;32.90;38.70
46720;DHT22;32452;51.382;-0.002;2023-10-08T12:02:05;32.90;38.60
46720;DHT22;32452;51.382;-0.002;2023-10-08T12:04:51;32.80;38.40
46720;DHT22;32452;51.382;-0.002;2023-10-08T12:07:37;32.60;38.40
46720;DHT22;32452;51.382;-0.002;2023-10-08T12:10:30;32.60;38.30
46720;DHT22;32452;51.382;-0.002;2023-10-08T12:13:35;32.70;38.30
46720;DHT22;32452;51.382;-0.002;2023-10-08T12:16:21;32.70;38.30
46720;DHT22;32452;51.382;-0.002;2023-10-08T12:19:08;32.80;38.40
46720;DHT22;32452;51.382;-0.002;2023-10-08T12:22:03;32.80;38.20
46720;DHT22;32452;51.382;-0.002;2023-10-08T12:24:48;32.80;37.90
46720;DHT22;32452;51.382;-0.002;2023-10-08T12:27:34;32.80;37.80
46720;DHT22;32452;51.382;-0.002;2023-10-08T12:30:22;32.70;37.90
46720;DHT22;32452;51.382;-0.002;2023-10-08T12:33:16;32.60;37.70
46720;DHT22;32452;51.382;-0.002;2023-10-08T12:36:02;32.50;37.70
46720;DHT22;32452;51.382;-0.002;2023-10-08T12:39:02;32.60;37.90
46720;DHT22;32452;51.382;-0.002;2023-10-08T12:42:11;32.60;38.00
46720;DHT22;32452;51.382;-0.002;2023-10-08T12:44:58;32.50;37.90
46720;DHT22;32452;51.382;-0.002;2023-10-08T12:47:46;32.30;37.70
46720;DHT22;32452;51.382;-0.002;2023-10-08T12:50:32;32.10;38.00
46720;DHT22;32452;51.382;-0.002;2023-10-08T12:53:41;31.90;38.00
46720;DHT22;32452;51.382;-0.002;2023-10-08T12:56:36;31.90;38.10
46720;DHT22;32452;51.382;-0.002;2023-10-08T12:59:31;31.90;38.20
46720;DHT22;32452;51.382;-0.002;2023-10-08T13:02:19;32.00;38.30
46720;DHT22;32452;51.382;-0.002;2023-10-08T13:05:06;32.10;38.50
46720;DHT22;32452;51.382;-0.002;2023-10-08T13:08:01;32.20;38.40
46720;DHT22;32452;51.382;-0.002;2023-10-08T13:10:54;32.20;38.20
46720;DHT22;32452;51.382;-0.002;2023-10-08T13:13:46;32.20;38.20
46720;DHT22;32452;51.382;-0.002;2023-10-08T13:16:32;32.20;38.60
46720;DHT22;32452;51.382;-0.002;2023-10-08T13:19:19;32.20;38.40
46720;DHT22;32452;51.382;-0.002;2023-10-08T13:22:06;32.10;38.20
46720;DHT22;32452;51.382;-0.002;2023-10-08T13:24:53;31.90;38.00
46720;DHT22;32452;51.382;-0.002;2023-10-08T13:27:39;31.70;38.20
46720;DHT22;32452;51.382;-0.002;2023-10-08T13:30:27;31.50;38.80
46720;DHT22;32452;51.382;-0.002;2023-10-08T13:33:12;31.30;39.20
46720;DHT22;32452;51.382;-0.002;2023-10-08T13:35:58;31.10;39.60
46720;DHT22;32452;51.382;-0.002;2023-10-08T13:39:03;31.00;39.80
46720;DHT22;32452;51.382;-0.002;2023-10-08T13:41:49;30.90;39.90
46720;DHT22;32452;51.382;-0.002;2023-10-08T13:44:37;30.80;40.20
46720;DHT22;32452;51.382;-0.002;2023-10-08T13:47:23;30.80;40.60
46720;DHT22;32452;51.382;-0.002;2023-10-08T13:50:11;30.60;40.70
46720;DHT22;32452;51.382;-0.002;2023-10-08T13:52:58;30.50;40.80
46720;DHT22;32452;51.382;-0.002;2023-10-08T13:55:43;30.30;41.20
46720;DHT22;32452;51.382;-0.002;2023-10-08T13:58:31;30.10;41.70
46720;DHT22;32452;51.382;-0.002;2023-10-08T14:01:19;30.00;41.90
46720;DHT22;32452;51.382;-0.002;2023-10-08T14:04:05;29.70;42.30
46720;DHT22;32452;51.382;-0.002;2023-10-08T14:06:54;29.40;42.80
46720;DHT22;32452;51.382;-0.002;2023-10-08T14:09:40;29.20;43.80
46720;DHT22;32452;51.382;-0.002;2023-10-08T14:12:27;29.00;44.40
46720;DHT22;32452;51.382;-0.002;2023-10-08T14:15:13;28.80;44.70
46720;DHT22;32452;51.382;-0.002;2023-10-08T14:18:00;28.60;45.20
46720;DHT22;32452;51.382;-0.002;2023-10-08T14:20:50;28.40;45.10
46720;DHT22;32452;51.382;-0.002;2023-10-08T14:23:39;28.30;45.60
46720;DHT22;32452;51.382;-0.002;2023-10-08T14:26:25;28.10;46.10
46720;DHT22;32452;51.382;-0.002;2023-10-08T14:29:19;28.00;46.40
46720;DHT22;32452;51.382;-0.002;2023-10-08T14:32:07;27.80;46.50
46720;DHT22;32452;51.382;-0.002;2023-10-08T14:34:54;27.70;46.90
46720;DHT22;32452;51.382;-0.002;2023-10-08T14:37:40;27.60;47.30
46720;DHT22;32452;51.382;-0.002;2023-10-08T14:40:44;27.50;47.40
46720;DHT22;32452;51.382;-0.002;2023-10-08T14:43:48;27.30;47.50
46720;DHT22;32452;51.382;-0.002;2023-10-08T14:46:34;27.20;47.80
46720;DHT22;32452;51.382;-0.002;2023-10-08T14:49:22;27.10;47.90
46720;DHT22;32452;51.382;-0.002;2023-10-08T14:52:08;27.00;48.10
46720;DHT22;32452;51.382;-0.002;2023-10-08T14:54:53;26.90;48.30
46720;DHT22;32452;51.382;-0.002;2023-10-08T14:57:39;26.90;48.40
46720;DHT22;32452;51.382;-0.002;2023-10-08T15:00:25;26.80;48.70
46720;DHT22;32452;51.382;-0.002;2023-10-08T15:03:12;26.70;48.90
46720;DHT22;32452;51.382;-0.002;2023-10-08T15:05:58;26.70;49.10
46720;DHT22;32452;51.382;-0.002;2023-10-08T15:08:44;26.60;49.20
46720;DHT22;32452;51.382;-0.002;2023-10-08T15:11:30;26.60;49.20
46720;DHT22;32452;51.382;-0.002;2023-10-08T15:14:21;26.50;49.30
46720;DHT22;32452;51.382;-0.002;2023-10-08T15:17:09;26.50;49.60
46720;DHT22;32452;51.382;-0.002;2023-10-08T15:19:55;26.30;49.80
46720;DHT22;32452;51.382;-0.002;2023-10-08T15:22:43;26.20;50.30
46720;DHT22;32452;51.382;-0.002;2023-10-08T15:25:29;26.10;50.50
46720;DHT22;32452;51.382;-0.002;2023-10-08T15:28:15;26.00;51.00
46720;DHT22;32452;51.382;-0.002;2023-10-08T15:31:00;25.90;51.30
46720;DHT22;32452;51.382;-0.002;2023-10-08T15:33:46;25.90;51.80
46720;DHT22;32452;51.382;-0.002;2023-10-08T15:36:32;25.80;51.80
46720;DHT22;32452;51.382;-0.002;2023-10-08T15:39:17;25.70;51.80
46720;DHT22;32452;51.382;-0.002;2023-10-08T15:42:08;25.60;52.00
46720;DHT22;32452;51.382;-0.002;2023-10-08T15:44:53;25.50;52.30
46720;DHT22;32452;51.382;-0.002;2023-10-08T15:47:39;25.40;52.70
46720;DHT22;32452;51.382;-0.002;2023-10-08T15:50:24;25.30;52.90
46720;DHT22;32452;51.382;-0.002;2023-10-08T15:53:11;25.30;53.00
46720;DHT22;32452;51.382;-0.002;2023-10-08T15:55:58;25.20;53.10
46720;DHT22;32452;51.382;-0.002;2023-10-08T15:58:43;25.10;53.00
46720;DHT22;32452;51.382;-0.002;2023-10-08T16:01:29;25.10;53.10
46720;DHT22;32452;51.382;-0.002;2023-10-08T16:04:15;25.00;53.40
46720;DHT22;32452;51.382;-0.002;2023-10-08T16:07:01;24.80;53.50
46720;DHT22;32452;51.382;-0.002;2023-10-08T16:09:47;24.80;53.70
46720;DHT22;32452;51.382;-0.002;2023-10-08T16:12:32;24.70;54.10
46720;DHT22;32452;51.382;-0.002;2023-10-08T16:15:19;24.60;54.20
46720;DHT22;32452;51.382;-0.002;2023-10-08T16:18:07;24.60;54.30
46720;DHT22;32452;51.382;-0.002;2023-10-08T16:20:52;24.50;54.50
46720;DHT22;32452;51.382;-0.002;2023-10-08T16:23:38;24.50;54.80
46720;DHT22;32452;51.382;-0.002;2023-10-08T16:26:24;24.40;54.90
46720;DHT22;32452;51.382;-0.002;2023-10-08T16:29:10;24.30;55.00
46720;DHT22;32452;51.382;-0.002;2023-10-08T16:31:57;24.20;55.00
46720;DHT22;32452;51.382;-0.002;2023-10-08T16:34:43;24.10;55.20
46720;DHT22;32452;51.382;-0.002;2023-10-08T16:37:30;24.10;55.50
46720;DHT22;32452;51.382;-0.002;2023-10-08T16:40:15;24.00;55.70
46720;DHT22;32452;51.382;-0.002;2023-10-08T16:43:01;23.90;55.90
46720;DHT22;32452;51.382;-0.002;2023-10-08T16:45:47;23.80;56.10
46720;DHT22;32452;51.382;-0.002;2023-10-08T16:48:32;23.70;56.30
46720;DHT22;32452;51.382;-0.002;2023-10-08T16:51:18;23.70;56.70
46720;DHT22;32452;51.382;-0.002;2023-10-08T16:54:05;23.50;57.00
46720;DHT22;32452;51.382;-0.002;2023-10-08T16:56:54;23.50;57.50
46720;DHT22;32452;51.382;-0.002;2023-10-08T16:59:39;23.40;57.70
46720;DHT22;32452;51.382;-0.002;2023-10-08T17:02:25;23.30;58.20
46720;DHT22;32452;51.382;-0.002;2023-10-08T17:05:13;23.30;58.60
46720;DHT22;32452;51.382;-0.002;2023-10-08T17:08:00;23.20;58.90
46720;DHT22;32452;51.382;-0.002;2023-10-08T17:10:46;23.10;59.20
46720;DHT22;32452;51.382;-0.002;2023-10-08T17:13:32;23.00;59.60
46720;DHT22;32452;51.382;-0.002;2023-10-08T17:16:18;22.90;59.90
46720;DHT22;32452;51.382;-0.002;2023-10-08T17:19:03;22.80;60.20
46720;DHT22;32452;51.382;-0.002;2023-10-08T17:21:51;22.70;60.70
46720;DHT22;32452;51.382;-0.002;2023-10-08T17:24:36;22.60;61.10
46720;DHT22;32452;51.382;-0.002;2023-10-08T17:27:24;22.50;61.50
46720;DHT22;32452;51.382;-0.002;2023-10-08T17:30:13;22.40;62.00
46720;DHT22;32452;51.382;-0.002;2023-10-08T17:33:04;22.30;62.50
46720;DHT22;32452;51.382;-0.002;2023-10-08T17:35:51;22.30;62.90
46720;DHT22;32452;51.382;-0.002;2023-10-08T17:38:37;22.20;63.30
46720;DHT22;32452;51.382;-0.002;2023-10-08T17:41:26;22.10;63.60